sensor_id;sensor_type;location;lat;lon;timestamp;P1;durP1;ratioP1;P2;durP2;ratioP2
20271;SDS011;10295;49.812;9.866;2022-11-15T00:00:50;13.87;;;6.40;;
20271;SDS011;10295;49.812;9.866;2022-11-15T00:03:18;13.23;;;6.07;;
20271;SDS011;10295;49.812;9.866;2022-11-15T00:05:46;13.27;;;6.23;;
20271;SDS011;10295;49.812;9.866;2022-11-15T00:08:13;12.43;;;6.20;;
20271;SDS011;10295;49.812;9.866;2022-11-15T00:10:40;17.63;;;6.30;;
20271;SDS011;10295;49.812;9.866;2022-11-15T00:13:11;16.70;;;6.37;;
20271;SDS011;10295;49.812;9.866;2022-11-15T00:15:40;13.80;;;6.67;;
20271;SDS011;10295;49.812;9.866;2022-11-15T00:18:13;15.67;;;6.20;;
20271;SDS011;10295;49.812;9.866;2022-11-15T00:20:41;13.87;;;6.30;;
20271;SDS011;10295;49.812;9.866;2022-11-15T00:23:08;13.90;;;5.90;;
20271;SDS011;10295;49.812;9.866;2022-11-15T00:25:36;15.47;;;5.63;;
20271;SDS011;10295;49.812;9.866;2022-11-15T00:28:03;14.27;;;5.90;;
20271;SDS011;10295;49.812;9.866;2022-11-15T00:30:30;13.00;;;5.90;;
20271;SDS011;10295;49.812;9.866;2022-11-15T00:33:01;12.03;;;5.90;;
20271;SDS011;10295;49.812;9.866;2022-11-15T00:35:28;13.73;;;6.23;;
20271;SDS011;10295;49.812;9.866;2022-11-15T00:37:55;16.83;;;5.73;;
20271;SDS011;10295;49.812;9.866;2022-11-15T00:40:22;16.37;;;5.67;;
20271;SDS011;10295;49.812;9.866;2022-11-15T00:42:49;14.20;;;6.77;;
20271;SDS011;10295;49.812;9.866;2022-11-15T00:45:16;12.97;;;5.63;;
20271;SDS011;10295;49.812;9.866;2022-11-15T00:47:44;13.13;;;6.10;;
20271;SDS011;10295;49.812;9.866;2022-11-15T00:50:12;12.00;;;5.83;;
20271;SDS011;10295;49.812;9.866;2022-11-15T00:52:40;12.87;;;6.07;;
20271;SDS011;10295;49.812;9.866;2022-11-15T00:55:17;15.07;;;6.43;;
20271;SDS011;10295;49.812;9.866;2022-11-15T00:57:45;12.93;;;6.20;;
20271;SDS011;10295;49.812;9.866;2022-11-15T01:00:13;15.67;;;6.40;;
20271;SDS011;10295;49.812;9.866;2022-11-15T01:02:40;13.60;;;5.87;;
20271;SDS011;10295;49.812;9.866;2022-11-15T01:05:07;14.17;;;5.73;;
20271;SDS011;10295;49.812;9.866;2022-11-15T01:07:35;14.40;;;5.90;;
20271;SDS011;10295;49.812;9.866;2022-11-15T01:10:03;11.97;;;5.60;;
20271;SDS011;10295;49.812;9.866;2022-11-15T01:12:30;20.17;;;6.30;;
20271;SDS011;10295;49.812;9.866;2022-11-15T01:14:58;13.00;;;6.07;;
20271;SDS011;10295;49.812;9.866;2022-11-15T01:17:25;12.90;;;6.17;;
20271;SDS011;10295;49.812;9.866;2022-11-15T01:19:52;16.13;;;6.87;;
20271;SDS011;10295;49.812;9.866;2022-11-15T01:22:19;15.23;;;7.00;;
20271;SDS011;10295;49.812;9.866;2022-11-15T01:24:46;17.63;;;7.20;;
20271;SDS011;10295;49.812;9.866;2022-11-15T01:27:14;16.00;;;7.43;;
20271;SDS011;10295;49.812;9.866;2022-11-15T01:29:41;18.43;;;7.40;;
20271;SDS011;10295;49.812;9.866;2022-11-15T01:32:08;16.43;;;7.40;;
20271;SDS011;10295;49.812;9.866;2022-11-15T01:34:35;14.07;;;7.00;;
20271;SDS011;10295;49.812;9.866;2022-11-15T01:37:02;14.37;;;6.93;;
20271;SDS011;10295;49.812;9.866;2022-11-15T01:39:29;15.53;;;6.87;;
20271;SDS011;10295;49.812;9.866;2022-11-15T01:41:56;15.97;;;7.50;;
20271;SDS011;10295;49.812;9.866;2022-11-15T01:47:01;15.37;;;6.97;;
20271;SDS011;10295;49.812;9.866;2022-11-15T01:49:30;15.80;;;7.37;;
20271;SDS011;10295;49.812;9.866;2022-11-15T01:51:59;15.97;;;7.03;;
20271;SDS011;10295;49.812;9.866;2022-11-15T01:54:27;16.13;;;7.10;;
20271;SDS011;10295;49.812;9.866;2022-11-15T01:56:56;16.57;;;7.67;;
20271;SDS011;10295;49.812;9.866;2022-11-15T01:59:24;20.10;;;7.60;;
20271;SDS011;10295;49.812;9.866;2022-11-15T02:01:52;17.73;;;7.07;;
20271;SDS011;10295;49.812;9.866;2022-11-15T02:04:24;14.73;;;7.13;;
20271;SDS011;10295;49.812;9.866;2022-11-15T02:06:52;17.03;;;7.90;;
20271;SDS011;10295;49.812;9.866;2022-11-15T02:09:19;21.47;;;8.10;;
20271;SDS011;10295;49.812;9.866;2022-11-15T02:11:47;16.33;;;7.63;;
20271;SDS011;10295;49.812;9.866;2022-11-15T02:14:15;16.17;;;7.90;;
20271;SDS011;10295;49.812;9.866;2022-11-15T02:16:48;18.77;;;8.23;;
20271;SDS011;10295;49.812;9.866;2022-11-15T02:24:49;17.97;;;7.63;;
20271;SDS011;10295;49.812;9.866;2022-11-15T02:32:57;18.53;;;8.13;;
20271;SDS011;10295;49.812;9.866;2022-11-15T02:37:59;18.33;;;7.73;;
20271;SDS011;10295;49.812;9.866;2022-11-15T02:40:33;18.80;;;7.90;;
20271;SDS011;10295;49.812;9.866;2022-11-15T02:43:04;17.10;;;7.57;;
20271;SDS011;10295;49.812;9.866;2022-11-15T02:45:53;15.63;;;7.43;;
20271;SDS011;10295;49.812;9.866;2022-11-15T02:48:23;17.53;;;8.17;;
20271;SDS011;10295;49.812;9.866;2022-11-15T02:50:51;21.23;;;8.80;;
20271;SDS011;10295;49.812;9.866;2022-11-15T02:53:23;18.40;;;8.13;;
20271;SDS011;10295;49.812;9.866;2022-11-15T02:55:50;22.90;;;9.27;;
20271;SDS011;10295;49.812;9.866;2022-11-15T03:01:10;18.20;;;8.67;;
20271;SDS011;10295;49.812;9.866;2022-11-15T03:11:17;18.53;;;9.80;;
20271;SDS011;10295;49.812;9.866;2022-11-15T03:13:47;18.10;;;8.90;;
20271;SDS011;10295;49.812;9.866;2022-11-15T03:18:52;22.87;;;10.50;;
20271;SDS011;10295;49.812;9.866;2022-11-15T03:21:21;22.57;;;10.07;;
20271;SDS011;10295;49.812;9.866;2022-11-15T03:23:49;21.10;;;9.67;;
20271;SDS011;10295;49.812;9.866;2022-11-15T03:26:17;19.60;;;10.37;;
20271;SDS011;10295;49.812;9.866;2022-11-15T03:28:50;24.63;;;10.73;;
20271;SDS011;10295;49.812;9.866;2022-11-15T03:31:18;23.17;;;10.80;;
20271;SDS011;10295;49.812;9.866;2022-11-15T03:34:28;20.10;;;10.23;;
20271;SDS011;10295;49.812;9.866;2022-11-15T03:36:57;22.90;;;11.07;;
20271;SDS011;10295;49.812;9.866;2022-11-15T03:39:24;22.80;;;11.63;;
20271;SDS011;10295;49.812;9.866;2022-11-15T03:42:08;23.80;;;12.23;;
20271;SDS011;10295;49.812;9.866;2022-11-15T03:47:06;22.13;;;11.40;;
20271;SDS011;10295;49.812;9.866;2022-11-15T03:49:35;24.67;;;11.97;;
20271;SDS011;10295;49.812;9.866;2022-11-15T03:52:03;23.87;;;11.33;;
20271;SDS011;10295;49.812;9.866;2022-11-15T03:54:31;22.50;;;10.97;;
20271;SDS011;10295;49.812;9.866;2022-11-15T03:56:58;24.10;;;11.60;;
20271;SDS011;10295;49.812;9.866;2022-11-15T03:59:25;23.73;;;11.97;;
20271;SDS011;10295;49.812;9.866;2022-11-15T04:01:52;24.37;;;11.87;;
20271;SDS011;10295;49.812;9.866;2022-11-15T04:04:19;27.53;;;12.33;;
20271;SDS011;10295;49.812;9.866;2022-11-15T04:06:47;24.37;;;12.70;;
20271;SDS011;10295;49.812;9.866;2022-11-15T04:09:14;29.40;;;12.53;;
20271;SDS011;10295;49.812;9.866;2022-11-15T04:11:41;25.73;;;12.50;;
20271;SDS011;10295;49.812;9.866;2022-11-15T04:14:08;27.27;;;13.80;;
20271;SDS011;10295;49.812;9.866;2022-11-15T04:16:35;27.77;;;14.53;;
20271;SDS011;10295;49.812;9.866;2022-11-15T04:19:09;29.17;;;13.83;;
20271;SDS011;10295;49.812;9.866;2022-11-15T04:21:54;28.70;;;14.37;;
20271;SDS011;10295;49.812;9.866;2022-11-15T04:24:40;30.37;;;14.53;;
20271;SDS011;10295;49.812;9.866;2022-11-15T04:27:07;29.80;;;14.57;;
20271;SDS011;10295;49.812;9.866;2022-11-15T04:29:34;30.57;;;14.33;;
20271;SDS011;10295;49.812;9.866;2022-11-15T04:32:02;29.07;;;14.30;;
20271;SDS011;10295;49.812;9.866;2022-11-15T04:34:29;27.80;;;13.27;;
20271;SDS011;10295;49.812;9.866;2022-11-15T04:36:57;30.83;;;13.47;;
20271;SDS011;10295;49.812;9.866;2022-11-15T04:39:40;25.70;;;13.03;;
20271;SDS011;10295;49.812;9.866;2022-11-15T04:42:07;25.67;;;13.30;;
20271;SDS011;10295;49.812;9.866;2022-11-15T04:44:35;27.30;;;13.13;;
20271;SDS011;10295;49.812;9.866;2022-11-15T04:47:03;24.27;;;12.47;;
20271;SDS011;10295;49.812;9.866;2022-11-15T04:49:30;26.83;;;12.97;;
20271;SDS011;10295;49.812;9.866;2022-11-15T04:51:57;27.73;;;12.43;;
20271;SDS011;10295;49.812;9.866;2022-11-15T04:54:24;22.53;;;11.57;;
20271;SDS011;10295;49.812;9.866;2022-11-15T04:56:51;23.70;;;12.17;;
20271;SDS011;10295;49.812;9.866;2022-11-15T04:59:19;26.63;;;12.33;;
20271;SDS011;10295;49.812;9.866;2022-11-15T05:01:46;23.80;;;11.43;;
20271;SDS011;10295;49.812;9.866;2022-11-15T05:04:13;29.97;;;13.00;;
20271;SDS011;10295;49.812;9.866;2022-11-15T05:06:50;25.10;;;12.43;;
20271;SDS011;10295;49.812;9.866;2022-11-15T05:09:18;32.87;;;13.23;;
20271;SDS011;10295;49.812;9.866;2022-11-15T05:11:45;27.97;;;13.00;;
20271;SDS011;10295;49.812;9.866;2022-11-15T05:14:13;25.77;;;12.77;;
20271;SDS011;10295;49.812;9.866;2022-11-15T05:16:40;24.83;;;13.07;;
20271;SDS011;10295;49.812;9.866;2022-11-15T05:19:08;26.97;;;13.27;;
20271;SDS011;10295;49.812;9.866;2022-11-15T05:21:35;27.67;;;13.00;;
20271;SDS011;10295;49.812;9.866;2022-11-15T05:24:02;28.00;;;12.67;;
20271;SDS011;10295;49.812;9.866;2022-11-15T05:26:29;29.17;;;12.93;;
20271;SDS011;10295;49.812;9.866;2022-11-15T05:28:57;26.47;;;12.80;;
20271;SDS011;10295;49.812;9.866;2022-11-15T05:31:24;25.70;;;12.67;;
20271;SDS011;10295;49.812;9.866;2022-11-15T05:33:52;24.90;;;12.73;;
20271;SDS011;10295;49.812;9.866;2022-11-15T05:36:31;25.40;;;12.43;;
20271;SDS011;10295;49.812;9.866;2022-11-15T05:38:59;24.57;;;13.40;;
20271;SDS011;10295;49.812;9.866;2022-11-15T05:41:36;26.93;;;13.03;;
20271;SDS011;10295;49.812;9.866;2022-11-15T05:44:05;29.27;;;12.40;;
20271;SDS011;10295;49.812;9.866;2022-11-15T05:46:33;26.53;;;11.87;;
20271;SDS011;10295;49.812;9.866;2022-11-15T05:49:01;25.87;;;11.17;;
20271;SDS011;10295;49.812;9.866;2022-11-15T05:51:28;25.17;;;11.63;;
20271;SDS011;10295;49.812;9.866;2022-11-15T05:53:56;26.33;;;12.63;;
20271;SDS011;10295;49.812;9.866;2022-11-15T05:56:25;24.17;;;12.07;;
20271;SDS011;10295;49.812;9.866;2022-11-15T05:58:55;25.07;;;12.13;;
20271;SDS011;10295;49.812;9.866;2022-11-15T06:01:25;30.17;;;11.90;;
20271;SDS011;10295;49.812;9.866;2022-11-15T06:03:52;21.43;;;11.43;;
20271;SDS011;10295;49.812;9.866;2022-11-15T06:06:19;26.63;;;13.50;;
20271;SDS011;10295;49.812;9.866;2022-11-15T06:08:47;28.80;;;13.10;;
20271;SDS011;10295;49.812;9.866;2022-11-15T06:11:14;29.73;;;13.50;;
20271;SDS011;10295;49.812;9.866;2022-11-15T06:13:41;24.47;;;12.47;;
20271;SDS011;10295;49.812;9.866;2022-11-15T06:16:08;29.27;;;13.50;;
20271;SDS011;10295;49.812;9.866;2022-11-15T06:18:35;27.27;;;13.33;;
20271;SDS011;10295;49.812;9.866;2022-11-15T06:21:03;25.83;;;13.13;;
20271;SDS011;10295;49.812;9.866;2022-11-15T06:23:34;25.13;;;12.43;;
20271;SDS011;10295;49.812;9.866;2022-11-15T06:26:02;32.73;;;14.47;;
20271;SDS011;10295;49.812;9.866;2022-11-15T06:28:30;30.30;;;14.30;;
20271;SDS011;10295;49.812;9.866;2022-11-15T06:31:04;32.17;;;14.80;;
20271;SDS011;10295;49.812;9.866;2022-11-15T06:33:32;36.83;;;20.00;;
20271;SDS011;10295;49.812;9.866;2022-11-15T06:36:00;33.80;;;17.37;;
20271;SDS011;10295;49.812;9.866;2022-11-15T06:38:28;31.40;;;15.53;;
20271;SDS011;10295;49.812;9.866;2022-11-15T06:40:55;27.37;;;14.67;;
20271;SDS011;10295;49.812;9.866;2022-11-15T06:43:22;29.33;;;14.47;;
20271;SDS011;10295;49.812;9.866;2022-11-15T06:45:49;28.97;;;14.43;;
20271;SDS011;10295;49.812;9.866;2022-11-15T06:48:16;32.57;;;16.40;;
20271;SDS011;10295;49.812;9.866;2022-11-15T06:50:49;27.77;;;14.07;;
20271;SDS011;10295;49.812;9.866;2022-11-15T06:53:16;28.03;;;14.60;;
20271;SDS011;10295;49.812;9.866;2022-11-15T06:55:44;33.13;;;15.20;;
20271;SDS011;10295;49.812;9.866;2022-11-15T06:58:11;28.77;;;14.90;;
20271;SDS011;10295;49.812;9.866;2022-11-15T07:00:38;26.40;;;13.70;;
20271;SDS011;10295;49.812;9.866;2022-11-15T07:03:05;23.03;;;12.13;;
20271;SDS011;10295;49.812;9.866;2022-11-15T07:05:32;24.17;;;12.27;;
20271;SDS011;10295;49.812;9.866;2022-11-15T07:08:00;30.67;;;12.03;;
20271;SDS011;10295;49.812;9.866;2022-11-15T07:10:27;31.63;;;11.63;;
20271;SDS011;10295;49.812;9.866;2022-11-15T07:12:54;24.87;;;12.97;;
20271;SDS011;10295;49.812;9.866;2022-11-15T07:15:23;47.50;;;33.33;;
20271;SDS011;10295;49.812;9.866;2022-11-15T07:17:50;28.73;;;17.00;;
20271;SDS011;10295;49.812;9.866;2022-11-15T07:20:17;23.47;;;11.70;;
20271;SDS011;10295;49.812;9.866;2022-11-15T07:22:44;22.40;;;11.20;;
20271;SDS011;10295;49.812;9.866;2022-11-15T07:25:12;23.43;;;9.93;;
20271;SDS011;10295;49.812;9.866;2022-11-15T07:27:39;16.17;;;9.03;;
20271;SDS011;10295;49.812;9.866;2022-11-15T07:30:06;19.37;;;9.50;;
20271;SDS011;10295;49.812;9.866;2022-11-15T07:32:34;17.77;;;8.83;;
20271;SDS011;10295;49.812;9.866;2022-11-15T07:35:01;15.23;;;7.50;;
20271;SDS011;10295;49.812;9.866;2022-11-15T07:37:28;19.30;;;7.37;;
20271;SDS011;10295;49.812;9.866;2022-11-15T07:39:55;15.23;;;7.17;;
20271;SDS011;10295;49.812;9.866;2022-11-15T07:42:22;13.97;;;6.93;;
20271;SDS011;10295;49.812;9.866;2022-11-15T07:45:08;16.77;;;6.90;;
20271;SDS011;10295;49.812;9.866;2022-11-15T07:47:35;15.63;;;6.80;;
20271;SDS011;10295;49.812;9.866;2022-11-15T07:50:02;13.47;;;6.30;;
20271;SDS011;10295;49.812;9.866;2022-11-15T07:52:29;15.20;;;6.37;;
20271;SDS011;10295;49.812;9.866;2022-11-15T07:54:56;14.80;;;6.63;;
20271;SDS011;10295;49.812;9.866;2022-11-15T07:57:23;13.20;;;6.43;;
20271;SDS011;10295;49.812;9.866;2022-11-15T07:59:50;13.43;;;6.90;;
20271;SDS011;10295;49.812;9.866;2022-11-15T08:02:17;14.30;;;6.10;;
20271;SDS011;10295;49.812;9.866;2022-11-15T08:04:45;13.13;;;6.10;;
20271;SDS011;10295;49.812;9.866;2022-11-15T08:07:12;12.67;;;6.20;;
20271;SDS011;10295;49.812;9.866;2022-11-15T08:09:39;16.13;;;6.60;;
20271;SDS011;10295;49.812;9.866;2022-11-15T08:12:07;12.70;;;6.20;;
20271;SDS011;10295;49.812;9.866;2022-11-15T08:14:34;11.50;;;6.53;;
20271;SDS011;10295;49.812;9.866;2022-11-15T08:17:01;14.40;;;6.33;;
20271;SDS011;10295;49.812;9.866;2022-11-15T08:19:28;12.70;;;6.57;;
20271;SDS011;10295;49.812;9.866;2022-11-15T08:21:55;23.17;;;11.40;;
20271;SDS011;10295;49.812;9.866;2022-11-15T08:24:22;21.67;;;9.93;;
20271;SDS011;10295;49.812;9.866;2022-11-15T08:26:50;19.60;;;9.87;;
20271;SDS011;10295;49.812;9.866;2022-11-15T08:29:17;18.90;;;9.50;;
20271;SDS011;10295;49.812;9.866;2022-11-15T08:31:44;15.47;;;7.77;;
20271;SDS011;10295;49.812;9.866;2022-11-15T08:34:11;13.63;;;6.90;;
20271;SDS011;10295;49.812;9.866;2022-11-15T08:36:38;12.93;;;5.47;;
20271;SDS011;10295;49.812;9.866;2022-11-15T08:39:11;17.57;;;5.97;;
20271;SDS011;10295;49.812;9.866;2022-11-15T08:41:38;14.70;;;6.03;;
20271;SDS011;10295;49.812;9.866;2022-11-15T08:44:06;11.73;;;5.95;;
20271;SDS011;10295;49.812;9.866;2022-11-15T08:46:33;18.60;;;6.30;;
20271;SDS011;10295;49.812;9.866;2022-11-15T08:49:00;14.05;;;5.72;;
20271;SDS011;10295;49.812;9.866;2022-11-15T08:51:27;13.23;;;6.15;;
20271;SDS011;10295;49.812;9.866;2022-11-15T08:53:54;15.05;;;6.45;;
20271;SDS011;10295;49.812;9.866;2022-11-15T08:56:21;17.92;;;5.63;;
20271;SDS011;10295;49.812;9.866;2022-11-15T08:58:48;15.15;;;6.00;;
20271;SDS011;10295;49.812;9.866;2022-11-15T09:01:17;18.50;;;6.85;;
20271;SDS011;10295;49.812;9.866;2022-11-15T09:03:44;14.45;;;6.43;;
20271;SDS011;10295;49.812;9.866;2022-11-15T09:06:11;17.83;;;6.35;;
20271;SDS011;10295;49.812;9.866;2022-11-15T09:08:38;14.65;;;7.10;;
20271;SDS011;10295;49.812;9.866;2022-11-15T09:11:13;13.85;;;6.43;;
20271;SDS011;10295;49.812;9.866;2022-11-15T09:13:42;19.05;;;7.47;;
20271;SDS011;10295;49.812;9.866;2022-11-15T09:16:09;18.73;;;7.90;;
20271;SDS011;10295;49.812;9.866;2022-11-15T09:18:38;17.63;;;7.63;;
20271;SDS011;10295;49.812;9.866;2022-11-15T09:21:05;20.25;;;8.20;;
20271;SDS011;10295;49.812;9.866;2022-11-15T09:23:33;20.85;;;8.80;;
20271;SDS011;10295;49.812;9.866;2022-11-15T09:26:00;21.70;;;8.10;;
20271;SDS011;10295;49.812;9.866;2022-11-15T09:28:29;22.20;;;8.90;;
20271;SDS011;10295;49.812;9.866;2022-11-15T09:30:57;24.95;;;8.85;;
20271;SDS011;10295;49.812;9.866;2022-11-15T09:33:25;21.20;;;8.40;;
20271;SDS011;10295;49.812;9.866;2022-11-15T09:35:52;24.10;;;8.70;;
20271;SDS011;10295;49.812;9.866;2022-11-15T09:38:19;21.77;;;8.55;;
20271;SDS011;10295;49.812;9.866;2022-11-15T09:40:49;18.58;;;8.27;;
20271;SDS011;10295;49.812;9.866;2022-11-15T09:51:00;26.60;;;8.75;;
20271;SDS011;10295;49.812;9.866;2022-11-15T09:53:31;18.30;;;8.15;;
20271;SDS011;10295;49.812;9.866;2022-11-15T09:56:22;21.55;;;8.73;;
20271;SDS011;10295;49.812;9.866;2022-11-15T09:59:13;20.63;;;8.52;;
20271;SDS011;10295;49.812;9.866;2022-11-15T10:01:53;26.63;;;8.43;;
20271;SDS011;10295;49.812;9.866;2022-11-15T10:04:23;23.70;;;8.57;;
20271;SDS011;10295;49.812;9.866;2022-11-15T10:06:58;15.45;;;7.30;;
20271;SDS011;10295;49.812;9.866;2022-11-15T10:09:30;17.30;;;8.25;;
20271;SDS011;10295;49.812;9.866;2022-11-15T10:12:01;19.02;;;8.18;;
20271;SDS011;10295;49.812;9.866;2022-11-15T10:14:28;21.50;;;8.48;;
20271;SDS011;10295;49.812;9.866;2022-11-15T10:19:39;17.40;;;7.93;;
20271;SDS011;10295;49.812;9.866;2022-11-15T10:22:28;16.60;;;7.75;;
20271;SDS011;10295;49.812;9.866;2022-11-15T10:25:00;25.25;;;8.80;;
20271;SDS011;10295;49.812;9.866;2022-11-15T10:27:27;16.77;;;7.90;;
20271;SDS011;10295;49.812;9.866;2022-11-15T10:29:56;18.77;;;8.38;;
20271;SDS011;10295;49.812;9.866;2022-11-15T10:32:23;18.65;;;8.68;;
20271;SDS011;10295;49.812;9.866;2022-11-15T10:34:50;27.45;;;10.18;;
20271;SDS011;10295;49.812;9.866;2022-11-15T10:37:27;19.02;;;9.13;;
20271;SDS011;10295;49.812;9.866;2022-11-15T10:43:16;25.35;;;10.65;;
20271;SDS011;10295;49.812;9.866;2022-11-15T10:45:45;25.30;;;10.35;;
20271;SDS011;10295;49.812;9.866;2022-11-15T10:50:40;28.75;;;10.38;;
20271;SDS011;10295;49.812;9.866;2022-11-15T10:53:13;26.90;;;9.47;;
20271;SDS011;10295;49.812;9.866;2022-11-15T10:55:42;21.43;;;9.00;;
20271;SDS011;10295;49.812;9.866;2022-11-15T11:01:22;17.73;;;9.13;;
20271;SDS011;10295;49.812;9.866;2022-11-15T11:06:26;20.58;;;8.95;;
20271;SDS011;10295;49.812;9.866;2022-11-15T11:08:55;22.13;;;8.97;;
20271;SDS011;10295;49.812;9.866;2022-11-15T11:11:23;21.83;;;9.70;;
20271;SDS011;10295;49.812;9.866;2022-11-15T11:13:50;25.47;;;8.93;;
20271;SDS011;10295;49.812;9.866;2022-11-15T11:18:52;21.07;;;7.83;;
20271;SDS011;10295;49.812;9.866;2022-11-15T11:21:26;22.67;;;9.00;;
20271;SDS011;10295;49.812;9.866;2022-11-15T11:24:08;24.13;;;9.00;;
20271;SDS011;10295;49.812;9.866;2022-11-15T11:26:44;19.73;;;8.50;;
20271;SDS011;10295;49.812;9.866;2022-11-15T11:42:38;22.10;;;7.30;;
20271;SDS011;10295;49.812;9.866;2022-11-15T11:47:19;22.70;;;7.17;;
20271;SDS011;10295;49.812;9.866;2022-11-15T11:54:50;17.27;;;7.93;;
20271;SDS011;10295;49.812;9.866;2022-11-15T12:00:17;18.40;;;8.23;;
20271;SDS011;10295;49.812;9.866;2022-11-15T12:08:25;19.63;;;7.30;;
20271;SDS011;10295;49.812;9.866;2022-11-15T12:10:57;17.67;;;7.37;;
20271;SDS011;10295;49.812;9.866;2022-11-15T12:13:26;26.33;;;7.47;;
20271;SDS011;10295;49.812;9.866;2022-11-15T12:16:03;19.03;;;7.77;;
20271;SDS011;10295;49.812;9.866;2022-11-15T12:18:35;17.37;;;6.83;;
20271;SDS011;10295;49.812;9.866;2022-11-15T12:24:05;22.63;;;8.33;;
20271;SDS011;10295;49.812;9.866;2022-11-15T12:26:35;18.23;;;7.10;;
20271;SDS011;10295;49.812;9.866;2022-11-15T12:29:39;23.13;;;8.33;;
20271;SDS011;10295;49.812;9.866;2022-11-15T12:31:57;16.00;;;8.03;;
20271;SDS011;10295;49.812;9.866;2022-11-15T12:34:34;17.90;;;8.80;;
20271;SDS011;10295;49.812;9.866;2022-11-15T12:37:02;19.47;;;8.50;;
20271;SDS011;10295;49.812;9.866;2022-11-15T12:40:36;22.77;;;9.10;;
20271;SDS011;10295;49.812;9.866;2022-11-15T12:42:56;18.30;;;9.03;;
20271;SDS011;10295;49.812;9.866;2022-11-15T12:45:33;15.77;;;8.77;;
20271;SDS011;10295;49.812;9.866;2022-11-15T12:56:37;15.43;;;7.67;;
20271;SDS011;10295;49.812;9.866;2022-11-15T12:58:41;24.33;;;8.20;;
20271;SDS011;10295;49.812;9.866;2022-11-15T13:11:57;20.27;;;8.13;;
20271;SDS011;10295;49.812;9.866;2022-11-15T13:19:47;21.40;;;9.50;;
20271;SDS011;10295;49.812;9.866;2022-11-15T13:22:14;19.33;;;9.27;;
20271;SDS011;10295;49.812;9.866;2022-11-15T13:25:03;21.80;;;8.57;;
20271;SDS011;10295;49.812;9.866;2022-11-15T13:27:30;23.90;;;8.77;;
20271;SDS011;10295;49.812;9.866;2022-11-15T13:29:57;18.97;;;8.93;;
20271;SDS011;10295;49.812;9.866;2022-11-15T13:32:25;32.53;;;8.80;;
20271;SDS011;10295;49.812;9.866;2022-11-15T13:34:52;20.93;;;8.53;;
20271;SDS011;10295;49.812;9.866;2022-11-15T13:39:46;25.80;;;9.13;;
20271;SDS011;10295;49.812;9.866;2022-11-15T13:42:14;22.10;;;9.50;;
20271;SDS011;10295;49.812;9.866;2022-11-15T13:44:54;23.23;;;9.17;;
20271;SDS011;10295;49.812;9.866;2022-11-15T13:47:21;26.20;;;9.90;;
20271;SDS011;10295;49.812;9.866;2022-11-15T13:49:53;22.27;;;8.97;;
20271;SDS011;10295;49.812;9.866;2022-11-15T13:52:20;20.00;;;8.63;;
20271;SDS011;10295;49.812;9.866;2022-11-15T13:54:50;22.90;;;9.20;;
20271;SDS011;10295;49.812;9.866;2022-11-15T13:57:22;23.07;;;9.73;;
20271;SDS011;10295;49.812;9.866;2022-11-15T13:59:54;24.13;;;9.40;;
20271;SDS011;10295;49.812;9.866;2022-11-15T14:02:25;29.10;;;10.50;;
20271;SDS011;10295;49.812;9.866;2022-11-15T14:04:56;23.70;;;9.60;;
20271;SDS011;10295;49.812;9.866;2022-11-15T14:07:25;22.67;;;10.87;;
20271;SDS011;10295;49.812;9.866;2022-11-15T14:09:53;27.83;;;10.57;;
20271;SDS011;10295;49.812;9.866;2022-11-15T14:14:48;26.87;;;11.33;;
20271;SDS011;10295;49.812;9.866;2022-11-15T14:19:55;34.97;;;11.93;;
20271;SDS011;10295;49.812;9.866;2022-11-15T14:22:23;25.73;;;11.20;;
20271;SDS011;10295;49.812;9.866;2022-11-15T14:25:13;20.57;;;10.17;;
20271;SDS011;10295;49.812;9.866;2022-11-15T14:27:42;29.00;;;11.87;;
20271;SDS011;10295;49.812;9.866;2022-11-15T14:30:13;33.10;;;10.73;;
20271;SDS011;10295;49.812;9.866;2022-11-15T14:32:45;28.43;;;11.57;;
20271;SDS011;10295;49.812;9.866;2022-11-15T14:35:14;35.60;;;13.00;;
20271;SDS011;10295;49.812;9.866;2022-11-15T14:37:41;28.30;;;12.80;;
20271;SDS011;10295;49.812;9.866;2022-11-15T14:40:11;33.50;;;12.83;;
20271;SDS011;10295;49.812;9.866;2022-11-15T14:42:39;27.17;;;12.07;;
20271;SDS011;10295;49.812;9.866;2022-11-15T14:45:16;26.27;;;13.47;;
20271;SDS011;10295;49.812;9.866;2022-11-15T14:47:44;24.97;;;12.40;;
20271;SDS011;10295;49.812;9.866;2022-11-15T14:50:15;27.07;;;11.63;;
20271;SDS011;10295;49.812;9.866;2022-11-15T14:52:43;27.93;;;12.33;;
20271;SDS011;10295;49.812;9.866;2022-11-15T14:57:38;31.87;;;11.60;;
20271;SDS011;10295;49.812;9.866;2022-11-15T15:00:05;27.03;;;12.40;;
20271;SDS011;10295;49.812;9.866;2022-11-15T15:02:32;31.00;;;12.67;;
20271;SDS011;10295;49.812;9.866;2022-11-15T15:04:59;32.17;;;13.17;;
20271;SDS011;10295;49.812;9.866;2022-11-15T15:07:29;35.90;;;13.00;;
20271;SDS011;10295;49.812;9.866;2022-11-15T15:09:56;33.87;;;13.07;;
20271;SDS011;10295;49.812;9.866;2022-11-15T15:12:43;33.10;;;12.60;;
20271;SDS011;10295;49.812;9.866;2022-11-15T15:15:18;29.30;;;10.27;;
20271;SDS011;10295;49.812;9.866;2022-11-15T15:17:46;31.57;;;10.90;;
20271;SDS011;10295;49.812;9.866;2022-11-15T15:20:14;23.93;;;9.33;;
20271;SDS011;10295;49.812;9.866;2022-11-15T15:22:41;22.53;;;8.70;;
20271;SDS011;10295;49.812;9.866;2022-11-15T15:25:28;28.03;;;9.90;;
20271;SDS011;10295;49.812;9.866;2022-11-15T15:27:55;36.00;;;14.03;;
20271;SDS011;10295;49.812;9.866;2022-11-15T15:30:23;36.73;;;12.63;;
20271;SDS011;10295;49.812;9.866;2022-11-15T15:32:50;33.43;;;12.80;;
20271;SDS011;10295;49.812;9.866;2022-11-15T15:35:17;26.23;;;11.30;;
20271;SDS011;10295;49.812;9.866;2022-11-15T15:37:45;25.70;;;10.80;;
20271;SDS011;10295;49.812;9.866;2022-11-15T15:42:40;31.30;;;11.50;;
20271;SDS011;10295;49.812;9.866;2022-11-15T15:45:07;37.00;;;11.57;;
20271;SDS011;10295;49.812;9.866;2022-11-15T15:47:35;35.47;;;12.03;;
20271;SDS011;10295;49.812;9.866;2022-11-15T15:50:03;33.07;;;11.67;;
20271;SDS011;10295;49.812;9.866;2022-11-15T15:52:30;28.87;;;10.13;;
20271;SDS011;10295;49.812;9.866;2022-11-15T15:54:57;28.83;;;10.70;;
20271;SDS011;10295;49.812;9.866;2022-11-15T15:57:24;30.70;;;11.70;;
20271;SDS011;10295;49.812;9.866;2022-11-15T15:59:51;39.20;;;17.27;;
20271;SDS011;10295;49.812;9.866;2022-11-15T16:02:18;33.90;;;13.27;;
20271;SDS011;10295;49.812;9.866;2022-11-15T16:04:46;33.63;;;13.73;;
20271;SDS011;10295;49.812;9.866;2022-11-15T16:07:17;31.27;;;13.33;;
20271;SDS011;10295;49.812;9.866;2022-11-15T16:09:46;38.90;;;15.00;;
20271;SDS011;10295;49.812;9.866;2022-11-15T16:12:33;32.93;;;15.47;;
20271;SDS011;10295;49.812;9.866;2022-11-15T16:15:00;32.20;;;13.70;;
20271;SDS011;10295;49.812;9.866;2022-11-15T16:17:32;35.87;;;15.13;;
20271;SDS011;10295;49.812;9.866;2022-11-15T16:20:00;27.17;;;12.10;;
20271;SDS011;10295;49.812;9.866;2022-11-15T16:22:27;23.73;;;9.20;;
20271;SDS011;10295;49.812;9.866;2022-11-15T16:24:55;20.50;;;7.93;;
20271;SDS011;10295;49.812;9.866;2022-11-15T16:27:22;26.10;;;7.80;;
20271;SDS011;10295;49.812;9.866;2022-11-15T16:29:50;17.63;;;7.10;;
20271;SDS011;10295;49.812;9.866;2022-11-15T16:32:17;22.80;;;7.80;;
20271;SDS011;10295;49.812;9.866;2022-11-15T16:34:44;20.97;;;9.13;;
20271;SDS011;10295;49.812;9.866;2022-11-15T16:37:21;21.43;;;10.47;;
20271;SDS011;10295;49.812;9.866;2022-11-15T16:39:49;22.03;;;10.10;;
20271;SDS011;10295;49.812;9.866;2022-11-15T16:42:16;18.60;;;9.33;;
20271;SDS011;10295;49.812;9.866;2022-11-15T16:44:43;21.07;;;10.30;;
20271;SDS011;10295;49.812;9.866;2022-11-15T16:47:17;18.10;;;8.60;;